sensor_id;sensor_type;location;lat;lon;timestamp;P1;durP1;ratioP1;P2;durP2;ratioP2
20090;SDS011;10205;49.678;6.560;2023-04-25T00:01:00;2.90;;;2.70;;
20090;SDS011;10205;49.678;6.560;2023-04-25T00:03:29;3.00;;;2.67;;
20090;SDS011;10205;49.678;6.560;2023-04-25T00:05:57;4.05;;;2.80;;
20090;SDS011;10205;49.678;6.560;2023-04-25T00:08:26;3.08;;;2.78;;
20090;SDS011;10205;49.678;6.560;2023-04-25T00:10:56;3.42;;;2.70;;
20090;SDS011;10205;49.678;6.560;2023-04-25T00:13:23;3.58;;;3.00;;
20090;SDS011;10205;49.678;6.560;2023-04-25T00:15:51;2.72;;;2.50;;
20090;SDS011;10205;49.678;6.560;2023-04-25T00:18:19;3.20;;;2.90;;
20090;SDS011;10205;49.678;6.560;2023-04-25T00:20:46;2.90;;;2.70;;
20090;SDS011;10205;49.678;6.560;2023-04-25T00:23:14;2.53;;;2.30;;
20090;SDS011;10205;49.678;6.560;2023-04-25T00:25:43;3.45;;;3.13;;
20090;SDS011;10205;49.678;6.560;2023-04-25T00:28:12;3.53;;;2.55;;
20090;SDS011;10205;49.678;6.560;2023-04-25T00:30:40;4.78;;;3.17;;
20090;SDS011;10205;49.678;6.560;2023-04-25T00:33:09;3.00;;;2.70;;
20090;SDS011;10205;49.678;6.560;2023-04-25T00:35:36;3.63;;;2.47;;
20090;SDS011;10205;49.678;6.560;2023-04-25T00:38:05;3.13;;;2.80;;
20090;SDS011;10205;49.678;6.560;2023-04-25T00:40:32;3.22;;;2.92;;
20090;SDS011;10205;49.678;6.560;2023-04-25T00:42:59;3.22;;;2.80;;
20090;SDS011;10205;49.678;6.560;2023-04-25T00:45:28;2.92;;;2.58;;
20090;SDS011;10205;49.678;6.560;2023-04-25T00:47:56;3.63;;;2.70;;
20090;SDS011;10205;49.678;6.560;2023-04-25T00:50:23;3.28;;;2.97;;
20090;SDS011;10205;49.678;6.560;2023-04-25T00:52:50;3.00;;;2.67;;
20090;SDS011;10205;49.678;6.560;2023-04-25T00:55:18;3.30;;;3.00;;
20090;SDS011;10205;49.678;6.560;2023-04-25T00:57:46;3.65;;;3.03;;
20090;SDS011;10205;49.678;6.560;2023-04-25T01:00:14;2.70;;;2.50;;
20090;SDS011;10205;49.678;6.560;2023-04-25T01:02:43;2.97;;;2.78;;
20090;SDS011;10205;49.678;6.560;2023-04-25T01:05:11;3.45;;;3.15;;
20090;SDS011;10205;49.678;6.560;2023-04-25T01:07:38;3.65;;;3.28;;
20090;SDS011;10205;49.678;6.560;2023-04-25T01:10:06;3.22;;;2.92;;
20090;SDS011;10205;49.678;6.560;2023-04-25T01:12:34;3.17;;;2.75;;
20090;SDS011;10205;49.678;6.560;2023-04-25T01:15:02;2.97;;;2.70;;
20090;SDS011;10205;49.678;6.560;2023-04-25T01:17:30;2.72;;;2.53;;
20090;SDS011;10205;49.678;6.560;2023-04-25T01:19:59;3.13;;;2.83;;
20090;SDS011;10205;49.678;6.560;2023-04-25T01:22:31;3.20;;;2.90;;
20090;SDS011;10205;49.678;6.560;2023-04-25T01:25:02;3.33;;;2.67;;
20090;SDS011;10205;49.678;6.560;2023-04-25T01:27:30;3.65;;;3.22;;
20090;SDS011;10205;49.678;6.560;2023-04-25T01:29:58;2.83;;;2.63;;
20090;SDS011;10205;49.678;6.560;2023-04-25T01:32:26;3.10;;;2.80;;
20090;SDS011;10205;49.678;6.560;2023-04-25T01:34:53;3.03;;;2.72;;
20090;SDS011;10205;49.678;6.560;2023-04-25T01:37:20;2.67;;;2.47;;
20090;SDS011;10205;49.678;6.560;2023-04-25T01:39:50;3.08;;;2.83;;
20090;SDS011;10205;49.678;6.560;2023-04-25T01:42:17;3.00;;;2.80;;
20090;SDS011;10205;49.678;6.560;2023-04-25T01:44:44;3.10;;;2.80;;
20090;SDS011;10205;49.678;6.560;2023-04-25T01:47:12;3.58;;;2.88;;
20090;SDS011;10205;49.678;6.560;2023-04-25T01:49:39;2.63;;;2.42;;
20090;SDS011;10205;49.678;6.560;2023-04-25T01:52:06;3.05;;;2.75;;
20090;SDS011;10205;49.678;6.560;2023-04-25T01:54:33;3.42;;;2.83;;
20090;SDS011;10205;49.678;6.560;2023-04-25T01:57:01;3.25;;;2.95;;
20090;SDS011;10205;49.678;6.560;2023-04-25T01:59:29;3.40;;;2.95;;
20090;SDS011;10205;49.678;6.560;2023-04-25T02:01:56;3.05;;;2.80;;
20090;SDS011;10205;49.678;6.560;2023-04-25T02:04:23;3.53;;;2.92;;
20090;SDS011;10205;49.678;6.560;2023-04-25T02:06:50;4.88;;;3.45;;
20090;SDS011;10205;49.678;6.560;2023-04-25T02:09:17;3.30;;;3.00;;
20090;SDS011;10205;49.678;6.560;2023-04-25T02:11:46;4.10;;;2.75;;
20090;SDS011;10205;49.678;6.560;2023-04-25T02:14:15;3.28;;;2.97;;
20090;SDS011;10205;49.678;6.560;2023-04-25T02:16:42;3.08;;;2.80;;
20090;SDS011;10205;49.678;6.560;2023-04-25T02:19:10;2.97;;;2.78;;
20090;SDS011;10205;49.678;6.560;2023-04-25T02:21:37;3.40;;;3.10;;
20090;SDS011;10205;49.678;6.560;2023-04-25T02:24:05;3.25;;;2.97;;
20090;SDS011;10205;49.678;6.560;2023-04-25T02:26:33;4.45;;;2.88;;
20090;SDS011;10205;49.678;6.560;2023-04-25T02:29:00;2.75;;;2.55;;
20090;SDS011;10205;49.678;6.560;2023-04-25T02:31:28;3.55;;;3.25;;
20090;SDS011;10205;49.678;6.560;2023-04-25T02:33:56;3.47;;;3.17;;
20090;SDS011;10205;49.678;6.560;2023-04-25T02:36:23;2.65;;;2.45;;
20090;SDS011;10205;49.678;6.560;2023-04-25T02:38:51;3.00;;;2.67;;
20090;SDS011;10205;49.678;6.560;2023-04-25T02:41:18;3.55;;;3.25;;
20090;SDS011;10205;49.678;6.560;2023-04-25T02:43:45;3.38;;;3.00;;
20090;SDS011;10205;49.678;6.560;2023-04-25T02:46:14;3.35;;;3.05;;
20090;SDS011;10205;49.678;6.560;2023-04-25T02:48:42;3.47;;;3.17;;
20090;SDS011;10205;49.678;6.560;2023-04-25T02:51:09;3.92;;;3.08;;
20090;SDS011;10205;49.678;6.560;2023-04-25T02:53:37;4.07;;;3.25;;
20090;SDS011;10205;49.678;6.560;2023-04-25T02:56:04;3.05;;;2.75;;
20090;SDS011;10205;49.678;6.560;2023-04-25T02:58:32;3.60;;;2.90;;
20090;SDS011;10205;49.678;6.560;2023-04-25T03:00:59;3.40;;;3.10;;
20090;SDS011;10205;49.678;6.560;2023-04-25T03:03:29;3.53;;;2.60;;
20090;SDS011;10205;49.678;6.560;2023-04-25T03:05:57;3.33;;;3.03;;
20090;SDS011;10205;49.678;6.560;2023-04-25T03:08:24;3.20;;;2.65;;
20090;SDS011;10205;49.678;6.560;2023-04-25T03:10:57;2.92;;;2.67;;
20090;SDS011;10205;49.678;6.560;2023-04-25T03:13:27;3.65;;;3.13;;
20090;SDS011;10205;49.678;6.560;2023-04-25T03:15:55;3.20;;;2.67;;
20090;SDS011;10205;49.678;6.560;2023-04-25T03:18:22;3.20;;;2.90;;
20090;SDS011;10205;49.678;6.560;2023-04-25T03:20:49;2.85;;;2.65;;
20090;SDS011;10205;49.678;6.560;2023-04-25T03:23:17;2.72;;;2.53;;
20090;SDS011;10205;49.678;6.560;2023-04-25T03:25:44;3.08;;;2.80;;
20090;SDS011;10205;49.678;6.560;2023-04-25T03:28:12;3.00;;;2.72;;
20090;SDS011;10205;49.678;6.560;2023-04-25T03:30:39;4.38;;;3.08;;
20090;SDS011;10205;49.678;6.560;2023-04-25T03:33:06;2.97;;;2.63;;
20090;SDS011;10205;49.678;6.560;2023-04-25T03:35:34;2.90;;;2.70;;
20090;SDS011;10205;49.678;6.560;2023-04-25T03:38:01;2.80;;;2.60;;
20090;SDS011;10205;49.678;6.560;2023-04-25T03:40:29;3.25;;;2.50;;
20090;SDS011;10205;49.678;6.560;2023-04-25T03:42:56;3.38;;;2.60;;
20090;SDS011;10205;49.678;6.560;2023-04-25T03:45:24;2.80;;;2.60;;
20090;SDS011;10205;49.678;6.560;2023-04-25T03:47:51;2.80;;;2.50;;
20090;SDS011;10205;49.678;6.560;2023-04-25T03:50:18;3.15;;;2.63;;
20090;SDS011;10205;49.678;6.560;2023-04-25T03:52:45;2.90;;;2.63;;
20090;SDS011;10205;49.678;6.560;2023-04-25T03:55:12;3.05;;;2.75;;
20090;SDS011;10205;49.678;6.560;2023-04-25T03:57:41;2.70;;;2.50;;
20090;SDS011;10205;49.678;6.560;2023-04-25T04:00:08;3.03;;;2.80;;
20090;SDS011;10205;49.678;6.560;2023-04-25T04:02:36;3.20;;;2.88;;
20090;SDS011;10205;49.678;6.560;2023-04-25T04:05:04;2.80;;;2.60;;
20090;SDS011;10205;49.678;6.560;2023-04-25T04:07:32;3.05;;;2.75;;
20090;SDS011;10205;49.678;6.560;2023-04-25T04:10:04;3.72;;;2.95;;
20090;SDS011;10205;49.678;6.560;2023-04-25T04:12:32;3.05;;;2.60;;
20090;SDS011;10205;49.678;6.560;2023-04-25T04:15:01;2.58;;;2.38;;
20090;SDS011;10205;49.678;6.560;2023-04-25T04:17:29;2.85;;;2.58;;
20090;SDS011;10205;49.678;6.560;2023-04-25T04:19:56;3.85;;;2.83;;
20090;SDS011;10205;49.678;6.560;2023-04-25T04:22:24;2.80;;;2.58;;
20090;SDS011;10205;49.678;6.560;2023-04-25T04:24:51;3.17;;;2.88;;
20090;SDS011;10205;49.678;6.560;2023-04-25T04:27:19;2.85;;;2.40;;
20090;SDS011;10205;49.678;6.560;2023-04-25T04:29:51;3.38;;;3.08;;
20090;SDS011;10205;49.678;6.560;2023-04-25T04:32:20;2.92;;;2.70;;
20090;SDS011;10205;49.678;6.560;2023-04-25T04:34:50;3.20;;;2.90;;
20090;SDS011;10205;49.678;6.560;2023-04-25T04:37:19;2.60;;;2.40;;
20090;SDS011;10205;49.678;6.560;2023-04-25T04:39:47;3.00;;;2.80;;
20090;SDS011;10205;49.678;6.560;2023-04-25T04:42:15;2.58;;;2.38;;
20090;SDS011;10205;49.678;6.560;2023-04-25T04:44:42;3.10;;;2.80;;
20090;SDS011;10205;49.678;6.560;2023-04-25T04:47:09;2.70;;;2.50;;
20090;SDS011;10205;49.678;6.560;2023-04-25T04:49:40;2.90;;;2.70;;
20090;SDS011;10205;49.678;6.560;2023-04-25T04:52:07;2.95;;;2.67;;
20090;SDS011;10205;49.678;6.560;2023-04-25T04:54:34;2.72;;;2.53;;
20090;SDS011;10205;49.678;6.560;2023-04-25T04:57:02;3.00;;;2.80;;
20090;SDS011;10205;49.678;6.560;2023-04-25T04:59:29;2.97;;;2.65;;
20090;SDS011;10205;49.678;6.560;2023-04-25T05:01:56;3.15;;;2.85;;
20090;SDS011;10205;49.678;6.560;2023-04-25T05:04:23;2.60;;;2.40;;
20090;SDS011;10205;49.678;6.560;2023-04-25T05:06:52;2.97;;;2.67;;
20090;SDS011;10205;49.678;6.560;2023-04-25T05:09:19;2.53;;;2.33;;
20090;SDS011;10205;49.678;6.560;2023-04-25T05:11:50;2.80;;;2.60;;
20090;SDS011;10205;49.678;6.560;2023-04-25T05:14:20;2.70;;;2.50;;
20090;SDS011;10205;49.678;6.560;2023-04-25T05:16:48;2.47;;;2.28;;
20090;SDS011;10205;49.678;6.560;2023-04-25T05:19:15;2.97;;;2.42;;
20090;SDS011;10205;49.678;6.560;2023-04-25T05:21:43;2.80;;;2.60;;
20090;SDS011;10205;49.678;6.560;2023-04-25T05:24:11;3.03;;;2.45;;
20090;SDS011;10205;49.678;6.560;2023-04-25T05:26:39;2.30;;;2.10;;
20090;SDS011;10205;49.678;6.560;2023-04-25T05:29:06;3.22;;;2.92;;
20090;SDS011;10205;49.678;6.560;2023-04-25T05:31:34;3.20;;;2.90;;
20090;SDS011;10205;49.678;6.560;2023-04-25T05:34:02;2.50;;;2.30;;
20090;SDS011;10205;49.678;6.560;2023-04-25T05:36:29;2.60;;;2.40;;
20090;SDS011;10205;49.678;6.560;2023-04-25T05:38:57;4.35;;;2.50;;
20090;SDS011;10205;49.678;6.560;2023-04-25T05:41:26;2.55;;;2.28;;
20090;SDS011;10205;49.678;6.560;2023-04-25T05:43:53;2.78;;;2.58;;
20090;SDS011;10205;49.678;6.560;2023-04-25T05:46:20;2.40;;;2.20;;
20090;SDS011;10205;49.678;6.560;2023-04-25T05:48:47;2.83;;;2.58;;
20090;SDS011;10205;49.678;6.560;2023-04-25T05:51:14;3.60;;;2.60;;
20090;SDS011;10205;49.678;6.560;2023-04-25T05:53:43;2.80;;;2.60;;
20090;SDS011;10205;49.678;6.560;2023-04-25T05:56:10;2.47;;;2.28;;
20090;SDS011;10205;49.678;6.560;2023-04-25T05:58:39;3.17;;;2.88;;
20090;SDS011;10205;49.678;6.560;2023-04-25T06:01:06;2.60;;;2.40;;
20090;SDS011;10205;49.678;6.560;2023-04-25T06:03:33;3.00;;;2.50;;
20090;SDS011;10205;49.678;6.560;2023-04-25T06:06:03;2.80;;;2.55;;
20090;SDS011;10205;49.678;6.560;2023-04-25T06:08:31;2.60;;;2.40;;
20090;SDS011;10205;49.678;6.560;2023-04-25T06:10:58;2.63;;;2.40;;
20090;SDS011;10205;49.678;6.560;2023-04-25T06:13:25;2.75;;;2.38;;
20090;SDS011;10205;49.678;6.560;2023-04-25T06:15:54;3.03;;;2.50;;
20090;SDS011;10205;49.678;6.560;2023-04-25T06:18:21;2.60;;;2.40;;
20090;SDS011;10205;49.678;6.560;2023-04-25T06:20:48;2.75;;;2.53;;
20090;SDS011;10205;49.678;6.560;2023-04-25T06:23:15;2.60;;;2.40;;
20090;SDS011;10205;49.678;6.560;2023-04-25T06:25:42;2.40;;;2.20;;
20090;SDS011;10205;49.678;6.560;2023-04-25T06:28:09;2.40;;;2.15;;
20090;SDS011;10205;49.678;6.560;2023-04-25T06:30:36;4.65;;;2.60;;
20090;SDS011;10205;49.678;6.560;2023-04-25T06:33:04;3.00;;;2.70;;
20090;SDS011;10205;49.678;6.560;2023-04-25T06:35:33;2.72;;;2.53;;
20090;SDS011;10205;49.678;6.560;2023-04-25T06:38:00;3.22;;;2.75;;
20090;SDS011;10205;49.678;6.560;2023-04-25T06:40:27;2.90;;;2.63;;
20090;SDS011;10205;49.678;6.560;2023-04-25T06:42:54;3.55;;;3.22;;
20090;SDS011;10205;49.678;6.560;2023-04-25T06:45:21;2.92;;;2.72;;
20090;SDS011;10205;49.678;6.560;2023-04-25T06:47:48;3.30;;;3.00;;
20090;SDS011;10205;49.678;6.560;2023-04-25T06:50:17;4.00;;;3.00;;
20090;SDS011;10205;49.678;6.560;2023-04-25T06:52:44;3.85;;;3.45;;
20090;SDS011;10205;49.678;6.560;2023-04-25T06:55:11;4.35;;;3.95;;
20090;SDS011;10205;49.678;6.560;2023-04-25T06:57:38;5.00;;;4.53;;
20090;SDS011;10205;49.678;6.560;2023-04-25T07:00:05;5.68;;;4.60;;
20090;SDS011;10205;49.678;6.560;2023-04-25T07:02:34;4.53;;;4.13;;
20090;SDS011;10205;49.678;6.560;2023-04-25T07:05:01;5.15;;;4.32;;
20090;SDS011;10205;49.678;6.560;2023-04-25T07:07:30;5.38;;;3.90;;
20090;SDS011;10205;49.678;6.560;2023-04-25T07:09:57;7.68;;;4.35;;
20090;SDS011;10205;49.678;6.560;2023-04-25T07:12:25;5.38;;;4.30;;
20090;SDS011;10205;49.678;6.560;2023-04-25T07:14:52;5.65;;;4.45;;
20090;SDS011;10205;49.678;6.560;2023-04-25T07:17:19;5.30;;;4.32;;
20090;SDS011;10205;49.678;6.560;2023-04-25T07:19:46;5.25;;;4.20;;
20090;SDS011;10205;49.678;6.560;2023-04-25T07:22:13;6.70;;;4.22;;
20090;SDS011;10205;49.678;6.560;2023-04-25T07:24:42;4.88;;;4.35;;
20090;SDS011;10205;49.678;6.560;2023-04-25T07:27:12;4.95;;;4.35;;
20090;SDS011;10205;49.678;6.560;2023-04-25T07:29:39;6.60;;;3.92;;
20090;SDS011;10205;49.678;6.560;2023-04-25T07:32:06;5.70;;;3.95;;
20090;SDS011;10205;49.678;6.560;2023-04-25T07:34:35;6.22;;;4.68;;
20090;SDS011;10205;49.678;6.560;2023-04-25T07:37:03;5.35;;;3.90;;
20090;SDS011;10205;49.678;6.560;2023-04-25T07:39:31;5.53;;;4.00;;
20090;SDS011;10205;49.678;6.560;2023-04-25T07:41:59;5.55;;;3.58;;
20090;SDS011;10205;49.678;6.560;2023-04-25T07:44:27;6.00;;;3.80;;
20090;SDS011;10205;49.678;6.560;2023-04-25T07:46:55;5.38;;;3.95;;
20090;SDS011;10205;49.678;6.560;2023-04-25T07:49:25;6.35;;;4.22;;
20090;SDS011;10205;49.678;6.560;2023-04-25T07:51:52;4.50;;;3.58;;
20090;SDS011;10205;49.678;6.560;2023-04-25T07:54:19;6.93;;;3.78;;
20090;SDS011;10205;49.678;6.560;2023-04-25T07:56:46;5.03;;;3.30;;
20090;SDS011;10205;49.678;6.560;2023-04-25T07:59:14;6.07;;;3.47;;
20090;SDS011;10205;49.678;6.560;2023-04-25T08:01:44;10.20;;;4.40;;
20090;SDS011;10205;49.678;6.560;2023-04-25T08:04:11;7.80;;;3.50;;
20090;SDS011;10205;49.678;6.560;2023-04-25T08:06:38;6.13;;;3.03;;
20090;SDS011;10205;49.678;6.560;2023-04-25T08:09:06;7.13;;;3.65;;
20090;SDS011;10205;49.678;6.560;2023-04-25T08:11:33;5.20;;;3.25;;
20090;SDS011;10205;49.678;6.560;2023-04-25T08:14:00;4.68;;;3.40;;
20090;SDS011;10205;49.678;6.560;2023-04-25T08:16:29;7.40;;;3.03;;
20090;SDS011;10205;49.678;6.560;2023-04-25T08:18:56;3.60;;;2.97;;
20090;SDS011;10205;49.678;6.560;2023-04-25T08:21:23;8.45;;;3.38;;
20090;SDS011;10205;49.678;6.560;2023-04-25T08:23:51;4.45;;;3.63;;
20090;SDS011;10205;49.678;6.560;2023-04-25T08:26:19;3.58;;;2.70;;
20090;SDS011;10205;49.678;6.560;2023-04-25T08:28:46;7.80;;;3.30;;
20090;SDS011;10205;49.678;6.560;2023-04-25T08:31:13;5.28;;;3.45;;
20090;SDS011;10205;49.678;6.560;2023-04-25T08:33:42;5.47;;;2.80;;
20090;SDS011;10205;49.678;6.560;2023-04-25T08:36:10;6.43;;;2.80;;
20090;SDS011;10205;49.678;6.560;2023-04-25T08:38:37;4.75;;;2.70;;
20090;SDS011;10205;49.678;6.560;2023-04-25T08:41:04;4.03;;;2.53;;
20090;SDS011;10205;49.678;6.560;2023-04-25T08:43:32;3.08;;;2.72;;
20090;SDS011;10205;49.678;6.560;2023-04-25T08:46:01;4.83;;;3.00;;
20090;SDS011;10205;49.678;6.560;2023-04-25T08:48:28;3.72;;;3.00;;
20090;SDS011;10205;49.678;6.560;2023-04-25T08:51:02;6.07;;;3.80;;
20090;SDS011;10205;49.678;6.560;2023-04-25T08:53:33;4.57;;;3.13;;
20090;SDS011;10205;49.678;6.560;2023-04-25T08:56:01;5.28;;;2.97;;
20090;SDS011;10205;49.678;6.560;2023-04-25T08:58:28;5.15;;;2.80;;
20090;SDS011;10205;49.678;6.560;2023-04-25T09:00:56;5.53;;;2.70;;
20090;SDS011;10205;49.678;6.560;2023-04-25T09:03:23;3.92;;;3.53;;
20090;SDS011;10205;49.678;6.560;2023-04-25T09:05:50;3.60;;;3.28;;
20090;SDS011;10205;49.678;6.560;2023-04-25T09:08:20;5.25;;;3.10;;
20090;SDS011;10205;49.678;6.560;2023-04-25T09:10:47;3.50;;;2.95;;
20090;SDS011;10205;49.678;6.560;2023-04-25T09:13:17;5.20;;;2.78;;
20090;SDS011;10205;49.678;6.560;2023-04-25T09:15:52;5.13;;;2.85;;
20090;SDS011;10205;49.678;6.560;2023-04-25T09:18:24;4.70;;;3.10;;
20090;SDS011;10205;49.678;6.560;2023-04-25T09:20:52;3.25;;;2.83;;
20090;SDS011;10205;49.678;6.560;2023-04-25T09:23:23;5.10;;;3.40;;
20090;SDS011;10205;49.678;6.560;2023-04-25T09:25:53;3.42;;;2.83;;
20090;SDS011;10205;49.678;6.560;2023-04-25T09:28:23;7.18;;;3.42;;
20090;SDS011;10205;49.678;6.560;2023-04-25T09:30:54;3.33;;;2.88;;
20090;SDS011;10205;49.678;6.560;2023-04-25T09:33:26;3.75;;;3.03;;
20090;SDS011;10205;49.678;6.560;2023-04-25T09:36:01;4.95;;;2.83;;
20090;SDS011;10205;49.678;6.560;2023-04-25T09:38:32;5.00;;;2.85;;
20090;SDS011;10205;49.678;6.560;2023-04-25T09:41:07;4.68;;;3.20;;
20090;SDS011;10205;49.678;6.560;2023-04-25T09:43:35;4.40;;;2.97;;
20090;SDS011;10205;49.678;6.560;2023-04-25T09:46:07;5.43;;;2.72;;
20090;SDS011;10205;49.678;6.560;2023-04-25T09:48:36;4.72;;;2.70;;
20090;SDS011;10205;49.678;6.560;2023-04-25T09:51:07;6.95;;;3.20;;
20090;SDS011;10205;49.678;6.560;2023-04-25T09:53:38;3.65;;;3.25;;
20090;SDS011;10205;49.678;6.560;2023-04-25T09:56:07;4.38;;;2.80;;
20090;SDS011;10205;49.678;6.560;2023-04-25T09:58:37;4.60;;;2.65;;
20090;SDS011;10205;49.678;6.560;2023-04-25T10:01:07;4.05;;;3.08;;
20090;SDS011;10205;49.678;6.560;2023-04-25T10:03:37;5.28;;;3.28;;
20090;SDS011;10205;49.678;6.560;2023-04-25T10:06:07;4.55;;;3.00;;
20090;SDS011;10205;49.678;6.560;2023-04-25T10:08:37;4.63;;;2.72;;
20090;SDS011;10205;49.678;6.560;2023-04-25T10:11:06;5.20;;;3.28;;
20090;SDS011;10205;49.678;6.560;2023-04-25T10:13:35;5.43;;;2.90;;
20090;SDS011;10205;49.678;6.560;2023-04-25T10:16:03;3.85;;;2.92;;
20090;SDS011;10205;49.678;6.560;2023-04-25T10:18:32;7.75;;;3.38;;
20090;SDS011;10205;49.678;6.560;2023-04-25T10:21:00;4.05;;;2.83;;
20090;SDS011;10205;49.678;6.560;2023-04-25T10:23:29;6.03;;;2.95;;
20090;SDS011;10205;49.678;6.560;2023-04-25T10:25:58;5.85;;;3.20;;
20090;SDS011;10205;49.678;6.560;2023-04-25T10:28:26;5.20;;;2.50;;
20090;SDS011;10205;49.678;6.560;2023-04-25T10:30:56;3.72;;;2.67;;
20090;SDS011;10205;49.678;6.560;2023-04-25T10:33:34;3.55;;;2.60;;
20090;SDS011;10205;49.678;6.560;2023-04-25T10:36:09;3.88;;;2.72;;
20090;SDS011;10205;49.678;6.560;2023-04-25T10:38:38;2.85;;;2.50;;
20090;SDS011;10205;49.678;6.560;2023-04-25T10:41:08;2.97;;;2.35;;
20090;SDS011;10205;49.678;6.560;2023-04-25T10:43:37;2.97;;;2.30;;
20090;SDS011;10205;49.678;6.560;2023-04-25T10:46:13;3.42;;;2.20;;
20090;SDS011;10205;49.678;6.560;2023-04-25T10:48:46;5.18;;;2.90;;
20090;SDS011;10205;49.678;6.560;2023-04-25T10:51:16;4.30;;;2.80;;
20090;SDS011;10205;49.678;6.560;2023-04-25T10:53:56;3.40;;;2.70;;
20090;SDS011;10205;49.678;6.560;2023-04-25T10:56:27;4.00;;;2.55;;
20090;SDS011;10205;49.678;6.560;2023-04-25T10:59:08;4.53;;;2.70;;
20090;SDS011;10205;49.678;6.560;2023-04-25T11:01:39;5.88;;;3.15;;
20090;SDS011;10205;49.678;6.560;2023-04-25T11:04:18;3.70;;;2.25;;
20090;SDS011;10205;49.678;6.560;2023-04-25T11:06:51;3.03;;;2.30;;
20090;SDS011;10205;49.678;6.560;2023-04-25T11:09:32;2.55;;;2.35;;
20090;SDS011;10205;49.678;6.560;2023-04-25T11:12:01;4.65;;;2.88;;
20090;SDS011;10205;49.678;6.560;2023-04-25T11:14:29;3.47;;;2.60;;
20090;SDS011;10205;49.678;6.560;2023-04-25T11:16:56;3.00;;;2.50;;
20090;SDS011;10205;49.678;6.560;2023-04-25T11:19:24;5.78;;;2.83;;
20090;SDS011;10205;49.678;6.560;2023-04-25T11:21:54;4.20;;;2.47;;
20090;SDS011;10205;49.678;6.560;2023-04-25T11:24:25;6.20;;;2.70;;
20090;SDS011;10205;49.678;6.560;2023-04-25T11:26:53;3.83;;;2.63;;
20090;SDS011;10205;49.678;6.560;2023-04-25T11:29:23;3.95;;;2.78;;
20090;SDS011;10205;49.678;6.560;2023-04-25T11:31:52;5.38;;;2.85;;
20090;SDS011;10205;49.678;6.560;2023-04-25T11:34:21;4.90;;;2.42;;
20090;SDS011;10205;49.678;6.560;2023-04-25T11:36:49;2.97;;;2.55;;
20090;SDS011;10205;49.678;6.560;2023-04-25T11:39:18;3.20;;;2.58;;
20090;SDS011;10205;49.678;6.560;2023-04-25T11:41:46;3.80;;;2.53;;
20090;SDS011;10205;49.678;6.560;2023-04-25T11:44:15;6.70;;;2.83;;
20090;SDS011;10205;49.678;6.560;2023-04-25T11:46:44;3.65;;;2.70;;
20090;SDS011;10205;49.678;6.560;2023-04-25T11:49:12;4.60;;;2.63;;
20090;SDS011;10205;49.678;6.560;2023-04-25T11:51:39;2.97;;;2.20;;
20090;SDS011;10205;49.678;6.560;2023-04-25T11:54:08;3.20;;;2.38;;
20090;SDS011;10205;49.678;6.560;2023-04-25T11:56:35;5.28;;;2.30;;
20090;SDS011;10205;49.678;6.560;2023-04-25T11:59:03;3.53;;;2.60;;
20090;SDS011;10205;49.678;6.560;2023-04-25T12:01:32;4.10;;;2.58;;
20090;SDS011;10205;49.678;6.560;2023-04-25T12:04:12;5.88;;;2.67;;
20090;SDS011;10205;49.678;6.560;2023-04-25T12:06:41;5.03;;;2.65;;
20090;SDS011;10205;49.678;6.560;2023-04-25T12:09:11;3.83;;;2.40;;
20090;SDS011;10205;49.678;6.560;2023-04-25T12:11:43;4.22;;;2.40;;
20090;SDS011;10205;49.678;6.560;2023-04-25T12:14:11;4.50;;;2.55;;
20090;SDS011;10205;49.678;6.560;2023-04-25T12:16:47;4.00;;;2.30;;
20090;SDS011;10205;49.678;6.560;2023-04-25T12:19:17;6.13;;;2.50;;
20090;SDS011;10205;49.678;6.560;2023-04-25T12:21:46;5.72;;;2.85;;
20090;SDS011;10205;49.678;6.560;2023-04-25T12:24:16;4.25;;;2.20;;
20090;SDS011;10205;49.678;6.560;2023-04-25T12:26:49;3.92;;;2.30;;
20090;SDS011;10205;49.678;6.560;2023-04-25T12:29:20;5.32;;;2.72;;
20090;SDS011;10205;49.678;6.560;2023-04-25T12:31:50;4.43;;;2.53;;
20090;SDS011;10205;49.678;6.560;2023-04-25T12:34:21;3.67;;;2.60;;
20090;SDS011;10205;49.678;6.560;2023-04-25T12:36:51;3.90;;;2.15;;
20090;SDS011;10205;49.678;6.560;2023-04-25T12:39:19;6.43;;;2.53;;
20090;SDS011;10205;49.678;6.560;2023-04-25T12:41:48;3.70;;;2.30;;
20090;SDS011;10205;49.678;6.560;2023-04-25T12:44:17;5.13;;;2.15;;
20090;SDS011;10205;49.678;6.560;2023-04-25T12:46:44;6.30;;;2.28;;
20090;SDS011;10205;49.678;6.560;2023-04-25T12:49:12;3.85;;;2.22;;
20090;SDS011;10205;49.678;6.560;2023-04-25T12:51:41;3.97;;;2.53;;
20090;SDS011;10205;49.678;6.560;2023-04-25T12:54:08;4.43;;;2.60;;
20090;SDS011;10205;49.678;6.560;2023-04-25T12:56:35;2.90;;;2.15;;
20090;SDS011;10205;49.678;6.560;2023-04-25T12:59:02;6.65;;;2.63;;
20090;SDS011;10205;49.678;6.560;2023-04-25T13:01:30;3.35;;;2.08;;
20090;SDS011;10205;49.678;6.560;2023-04-25T13:03:57;4.28;;;2.03;;
20090;SDS011;10205;49.678;6.560;2023-04-25T13:06:25;3.03;;;1.95;;
20090;SDS011;10205;49.678;6.560;2023-04-25T13:08:53;4.13;;;2.10;;
20090;SDS011;10205;49.678;6.560;2023-04-25T13:11:20;4.60;;;2.28;;
20090;SDS011;10205;49.678;6.560;2023-04-25T13:13:48;2.50;;;1.80;;
20090;SDS011;10205;49.678;6.560;2023-04-25T13:16:15;3.30;;;1.90;;
20090;SDS011;10205;49.678;6.560;2023-04-25T13:18:43;3.22;;;2.22;;
20090;SDS011;10205;49.678;6.560;2023-04-25T13:21:11;5.55;;;1.80;;
20090;SDS011;10205;49.678;6.560;2023-04-25T13:23:38;4.47;;;2.38;;
20090;SDS011;10205;49.678;6.560;2023-04-25T13:26:09;3.10;;;2.10;;
20090;SDS011;10205;49.678;6.560;2023-04-25T13:28:36;3.25;;;2.30;;
20090;SDS011;10205;49.678;6.560;2023-04-25T13:31:05;4.68;;;1.92;;
20090;SDS011;10205;49.678;6.560;2023-04-25T13:33:32;4.65;;;2.58;;
20090;SDS011;10205;49.678;6.560;2023-04-25T13:36:00;3.10;;;1.90;;
20090;SDS011;10205;49.678;6.560;2023-04-25T13:38:28;3.25;;;1.90;;
20090;SDS011;10205;49.678;6.560;2023-04-25T13:40:55;3.22;;;2.00;;
20090;SDS011;10205;49.678;6.560;2023-04-25T13:43:24;4.00;;;2.30;;
20090;SDS011;10205;49.678;6.560;2023-04-25T13:45:51;3.70;;;1.88;;
20090;SDS011;10205;49.678;6.560;2023-04-25T13:48:18;2.25;;;1.50;;
20090;SDS011;10205;49.678;6.560;2023-04-25T13:50:45;2.88;;;1.70;;
20090;SDS011;10205;49.678;6.560;2023-04-25T13:53:13;5.95;;;1.77;;
20090;SDS011;10205;49.678;6.560;2023-04-25T13:55:40;3.50;;;1.88;;
20090;SDS011;10205;49.678;6.560;2023-04-25T13:58:07;2.85;;;1.80;;
20090;SDS011;10205;49.678;6.560;2023-04-25T14:00:36;2.78;;;1.90;;
20090;SDS011;10205;49.678;6.560;2023-04-25T14:03:05;5.32;;;1.67;;
20090;SDS011;10205;49.678;6.560;2023-04-25T14:05:33;2.38;;;1.63;;
20090;SDS011;10205;49.678;6.560;2023-04-25T14:08:04;5.10;;;1.70;;
20090;SDS011;10205;49.678;6.560;2023-04-25T14:10:35;1.90;;;1.42;;
20090;SDS011;10205;49.678;6.560;2023-04-25T14:13:04;4.93;;;2.08;;
20090;SDS011;10205;49.678;6.560;2023-04-25T14:15:32;5.38;;;1.77;;
20090;SDS011;10205;49.678;6.560;2023-04-25T14:18:01;2.63;;;1.63;;
20090;SDS011;10205;49.678;6.560;2023-04-25T14:20:29;3.88;;;2.03;;
20090;SDS011;10205;49.678;6.560;2023-04-25T14:22:56;2.78;;;1.73;;
20090;SDS011;10205;49.678;6.560;2023-04-25T14:25:24;4.25;;;2.08;;
20090;SDS011;10205;49.678;6.560;2023-04-25T14:27:52;5.45;;;1.90;;
20090;SDS011;10205;49.678;6.560;2023-04-25T14:30:20;5.10;;;1.98;;
20090;SDS011;10205;49.678;6.560;2023-04-25T14:32:48;3.58;;;2.15;;
20090;SDS011;10205;49.678;6.560;2023-04-25T14:35:17;2.78;;;1.85;;
20090;SDS011;10205;49.678;6.560;2023-04-25T14:37:44;4.40;;;1.80;;
20090;SDS011;10205;49.678;6.560;2023-04-25T14:40:12;5.38;;;1.77;;
20090;SDS011;10205;49.678;6.560;2023-04-25T14:42:41;3.75;;;1.40;;
20090;SDS011;10205;49.678;6.560;2023-04-25T14:45:09;2.75;;;1.70;;
20090;SDS011;10205;49.678;6.560;2023-04-25T14:47:48;4.50;;;1.60;;
20090;SDS011;10205;49.678;6.560;2023-04-25T14:50:17;3.58;;;1.50;;
20090;SDS011;10205;49.678;6.560;2023-04-25T14:52:44;2.85;;;1.60;;
20090;SDS011;10205;49.678;6.560;2023-04-25T14:55:11;2.55;;;1.75;;